Irmo, SC (29063)

2:56 PM EDT on August 01, 2015 (GMT -0400)
Ascot | | Change Station
CLOSE
Current Station
Personal Weather Station
Location: Irmo, SC
Elevation: 328 ft
Nearby Weather Stations

Elev 328 ft 34.14 °N, 81.17 °W | Updated 14 seconds ago

Clear
Clear
96.3 °F
Feels Like 100 °F
N
1.4
Wind Variable Wind from ESE
Gusts 4.0 mph

Today
High -- | Low -- °F
--% Chance of Precip.
Yesterday
High -- | Low -- °F
Precip. -- in
6:35 AM 8:25 PM
Full, 97% visible
Pressure 29.91 in
Visibility 10.0 miles
Clouds Few 7500 ft
Few 12000 ft
Heat Index 100 °F
Dew Point 66 °F
Humidity 38%
Rainfall 0.00 in
Snow Depth Not available.
UV 11 out of 12
Pollen 5.10 out of 12
Air Quality Not available.
Flu Activity Not available.
METAR KCAE 011756Z 02007KT 10SM FEW075 FEW120 35/16 A2992 RMK AO2 SLP128 T03500156 10350 20261 58009

More Conditions Fewer Conditions

Pressure 29.91 in
Visibility 10.0 miles
Clouds Few 7500 ft
Few 12000 ft
Heat Index 100 °F
Dew Point 66 °F
Humidity 38%
Rainfall 0.00 in
Snow Depth Not available.
UV 11 out of 12
Pollen 5.10 out of 12
Air Quality Not available.
Flu Activity Not available.
METAR KCAE 011756Z 02007KT 10SM FEW075 FEW120 35/16 A2992 RMK AO2 SLP128 T03500156 10350 20261 58009

More Conditions Fewer Conditions

10-Day Weather Forecast

×

Almanac

Astronomy

Aug. 01, 2015 Rise Set
Actual Time
Civil Twilight
Nautical Twilight
Astronomical Twilight
Moon
Length of Visible Light
Length of Day
Tomorrow will be .
, % of the Moon is Illuminated

Today's Extremes

State Highs State Lows

Community

WunderPhotos

Upload Photos

1,843,028 photos uploaded!

WunderBlogs® & News

Nearby

Air Quality

  Air Quality AQ Index Pollutant
Not available.

Snow Depth

Station Depth Elevation

Earthquake Activity

City Distance Mag. Time & Date
Minimum magnitude displayed is 2.5.

Coastal Water Temperatures

Place Temperature

Stations

Nearby Weather Stations

Station Location Temp. Windchill Dew Point Humidity Wind Precip. Elev Updated Type